Time;durP1;ratioP1;P1;durP2;ratioP2;P2;SDS_P1;SDS_P2;PMS_P1;PMS_P2;Temp;Humidity;BMP_temperature;BMP_pressure;BME280_temperature;BME280_humidity;BME280_pressure;Samples;Min_cycle;Max_cycle;Signal;HPM_P1;HPM_P2
2022/06/04 00:00:30;;;;;;;8.60;6.13;;;;;;;18.14;74.92;96885.44;5114357;28;20027;-63
2022/06/04 00:02:55;;;;;;;9.90;6.30;;;;;;;18.10;75.29;96886.56;5114368;28;20077;-63
2022/06/04 00:05:27;;;;;;;12.65;6.28;;;;;;;18.03;76.04;96880.78;5114492;28;20024;-64
2022/06/04 00:07:54;;;;;;;9.98;6.72;;;;;;;17.99;76.57;96876.63;5114197;28;20426;-62
2022/06/04 00:15:53;;;;;;;7.60;6.38;;;;;;;17.94;75.62;96881.34;5114340;28;20042;-63
2022/06/04 00:18:20;;;;;;;9.48;6.30;;;;;;;17.94;75.79;96878.69;5114099;28;20016;-65
2022/06/04 00:20:47;;;;;;;9.38;6.75;;;;;;;17.88;75.68;96874.66;5114015;28;20046;-64
2022/06/04 00:23:13;;;;;;;7.10;5.60;;;;;;;17.88;75.31;96873.81;5114128;28;20026;-62
2022/06/04 00:25:41;;;;;;;7.32;5.60;;;;;;;17.86;75.05;96871.25;5114055;28;20102;-65
2022/06/04 00:28:09;;;;;;;8.63;6.28;;;;;;;17.79;75.42;96854.91;5112801;28;20092;-61
2022/06/04 00:30:35;;;;;;;9.98;6.93;;;;;;;17.71;76.41;96849.25;5113969;28;20075;-62
2022/06/04 00:33:01;;;;;;;11.23;7.32;;;;;;;17.71;78.08;96843.09;5113837;28;20076;-62
2022/06/04 00:35:27;;;;;;;10.13;6.75;;;;;;;17.73;79.10;96844.69;5113438;28;20389;-66
2022/06/04 00:37:54;;;;;;;8.32;6.70;;;;;;;17.69;78.74;96853.78;5113800;28;20031;-64
2022/06/04 00:40:33;;;;;;;10.02;7.13;;;;;;;17.69;79.22;96859.06;5113741;28;20027;-65
2022/06/04 00:42:59;;;;;;;14.95;7.00;;;;;;;17.70;78.47;96842.25;5113732;28;20034;-65
2022/06/04 00:45:36;;;;;;;9.27;6.53;;;;;;;17.68;78.11;96842.38;5113720;28;20380;-65
2022/06/04 00:48:10;;;;;;;12.30;7.07;;;;;;;17.64;78.07;96835.53;5113562;28;20039;-63
2022/06/04 00:50:39;;;;;;;14.15;6.38;;;;;;;17.64;77.29;96832.06;5113583;28;20026;-60
2022/06/04 00:53:08;;;;;;;8.75;6.22;;;;;;;17.64;76.83;96827.63;5113614;28;20016;-63
2022/06/04 00:55:45;;;;;;;8.75;6.97;;;;;;;17.61;76.22;96826.97;5113500;28;20020;-64
2022/06/04 00:58:11;;;;;;;7.88;6.45;;;;;;;17.55;77.13;96817.63;5113546;28;20130;-64
2022/06/04 01:00:59;;;;;;;7.97;6.38;;;;;;;17.51;77.57;96818.75;5113516;28;20509;-63
2022/06/04 01:04:02;;;;;;;7.22;6.30;;;;;;;17.53;76.63;96817.72;5113560;28;20030;-66
2022/06/04 01:06:49;;;;;;;8.50;6.00;;;;;;;17.48;76.89;96811.84;5113770;28;20031;-64
2022/06/04 01:10:06;;;;;;;7.45;6.03;;;;;;;17.46;76.47;96812.91;5117848;28;20397;-65
2022/06/04 01:12:57;;;;;;;8.55;6.00;;;;;;;17.47;76.24;96815.44;5086561;28;20043;-65
2022/06/04 01:15:37;;;;;;;7.00;5.70;;;;;;;17.46;76.14;96819.03;5117692;28;20035;-63
2022/06/04 01:18:18;;;;;;;11.18;6.28;;;;;;;17.33;76.86;96820.75;5117683;28;20027;-63
2022/06/04 01:20:53;;;;;;;9.85;6.20;;;;;;;17.26;78.00;96818.47;5117444;28;20036;-62
2022/06/04 01:23:56;;;;;;;8.68;6.60;;;;;;;17.25;77.99;96821.22;5117535;28;20055;-65
2022/06/04 01:26:59;;;;;;;7.95;6.95;;;;;;;17.17;78.08;96821.66;5117423;28;20145;-65
2022/06/04 01:29:38;;;;;;;11.25;7.35;;;;;;;17.13;77.97;96826.28;5117287;28;20084;-62
2022/06/04 01:32:25;;;;;;;9.18;7.00;;;;;;;17.14;78.20;96833.28;5117305;28;20023;-65
2022/06/04 01:35:15;;;;;;;9.27;6.72;;;;;;;17.07;79.65;96837.25;5117146;28;20039;-64
2022/06/04 01:38:05;;;;;;;13.05;7.20;;;;;;;16.93;81.16;96824.81;5117190;28;20028;-63
2022/06/04 01:43:26;;;;;;;9.10;7.32;;;;;;;16.93;80.21;96817.75;5117545;28;20397;-63
2022/06/04 01:45:55;;;;;;;8.25;6.57;;;;;;;16.98;79.38;96827.19;5117255;28;20024;-66
2022/06/04 01:48:23;;;;;;;11.23;7.38;;;;;;;16.96;80.14;96826.41;5117033;28;20119;-61
2022/06/04 01:50:54;;;;;;;10.85;7.97;;;;;;;16.93;80.12;96830.09;5117164;28;20065;-65
2022/06/04 01:53:25;;;;;;;12.25;7.03;;;;;;;17.00;80.16;96826.13;5117006;28;20139;-64
2022/06/04 01:55:56;;;;;;;10.07;7.40;;;;;;;17.04;79.45;96822.34;5117078;27;20034;-61
2022/06/04 01:58:27;;;;;;;8.40;6.45;;;;;;;17.08;80.02;96816.94;5117026;28;20102;-62
2022/06/04 02:01:02;;;;;;;10.00;6.85;;;;;;;17.08;79.46;96823.06;5116841;28;20485;-64
2022/06/04 02:04:00;;;;;;;9.50;7.38;;;;;;;17.07;80.03;96812.59;5116752;28;20035;-64
2022/06/04 02:06:35;;;;;;;10.15;7.18;;;;;;;17.03;80.24;96825.09;5116251;28;20557;-63
2022/06/04 02:09:12;;;;;;;7.45;6.05;;;;;;;17.09;80.00;96829.19;5116549;28;20039;-65
2022/06/04 02:11:43;;;;;;;10.38;6.90;;;;;;;17.10;79.89;96820.34;5116645;28;20103;-63
2022/06/04 02:14:09;;;;;;;;;;;;;;;17.13;80.18;96825.44;5117039;28;20070;-65
2022/06/04 02:16:50;;;;;;;11.50;7.70;;;;;;;17.10;80.81;96822.97;5116429;28;19912;-62
2022/06/04 02:19:15;;;;;;;11.35;7.88;;;;;;;17.09;81.23;96824.75;5116459;28;20027;-66
2022/06/04 02:21:41;;;;;;;12.25;7.68;;;;;;;17.12;81.09;96816.66;5116360;28;20024;-64
2022/06/04 02:24:09;;;;;;;10.55;7.20;;;;;;;17.15;80.30;96826.19;5116306;28;20032;-62
2022/06/04 02:26:35;;;;;;;10.15;6.93;;;;;;;17.19;79.82;96833.00;5116215;28;20090;-67
2022/06/04 02:29:02;;;;;;;12.02;7.38;;;;;;;17.22;79.11;96839.91;5116094;28;20020;-64
2022/06/04 02:32:02;;;;;;;8.25;6.63;;;;;;;17.10;78.56;96830.91;5116292;27;20043;-64
2022/06/04 02:34:35;;;;;;;8.35;7.22;;;;;;;16.97;78.92;96836.88;5105032;28;20043;-65
2022/06/04 02:37:10;;;;;;;10.00;7.38;;;;;;;16.95;79.21;96846.72;5116114;28;20032;-63
2022/06/04 02:39:46;;;;;;;11.35;7.28;;;;;;;17.03;80.06;96841.81;5116081;28;20476;-63
2022/06/04 02:42:33;;;;;;;9.00;6.50;;;;;;;17.07;79.43;96836.38;5116070;28;20069;-63
2022/06/04 02:45:16;;;;;;;13.55;7.03;;;;;;;17.10;79.08;96836.19;5116170;28;20027;-64
2022/06/04 02:47:47;;;;;;;8.25;6.43;;;;;;;17.09;79.93;96842.41;5115932;28;20059;-66
2022/06/04 02:50:30;;;;;;;12.98;7.65;;;;;;;17.11;79.88;96827.31;5115910;28;20076;-64
2022/06/04 02:52:58;;;;;;;9.05;7.20;;;;;;;17.17;79.22;96833.09;5115838;28;20027;-64
2022/06/04 02:55:27;;;;;;;7.50;6.40;;;;;;;17.23;79.15;96842.44;5115655;28;20530;-64
2022/06/04 02:57:56;;;;;;;9.23;7.13;;;;;;;17.29;79.12;96838.56;5115754;28;20119;-66
2022/06/04 03:00:25;;;;;;;8.35;6.35;;;;;;;17.30;78.38;96838.47;5115616;28;20023;-62
2022/06/04 03:02:51;;;;;;;12.48;6.25;;;;;;;17.32;78.27;96843.69;5115504;28;20424;-64
2022/06/04 03:05:21;;;;;;;9.77;6.15;;;;;;;17.35;78.03;96848.78;5115451;28;20012;-62
2022/06/04 03:07:49;;;;;;;11.32;7.10;;;;;;;17.36;78.89;96847.84;5115370;28;20069;-63
2022/06/04 03:10:18;;;;;;;7.40;6.70;;;;;;;17.32;79.80;96854.25;5115473;28;20538;-64
2022/06/04 03:12:44;;;;;;;12.13;6.43;;;;;;;17.35;79.40;96859.34;5115415;28;20030;-63
2022/06/04 03:15:11;;;;;;;11.15;6.50;;;;;;;17.37;78.27;96862.75;5115228;28;20027;-64
2022/06/04 03:17:39;;;;;;;11.68;6.05;;;;;;;17.34;78.88;96862.91;5115287;28;20466;-62
2022/06/04 03:20:07;;;;;;;8.10;6.10;;;;;;;17.36;78.51;96868.97;5115286;28;20050;-65
2022/06/04 03:22:33;;;;;;;8.57;6.65;;;;;;;17.40;78.22;96872.31;5115233;28;20085;-60
2022/06/04 03:24:59;;;;;;;7.93;5.78;;;;;;;17.48;77.55;96877.09;5115093;28;20465;-66
2022/06/04 03:27:25;;;;;;;7.70;6.13;;;;;;;17.53;77.61;96877.69;5115039;28;20019;-66
2022/06/04 03:29:50;;;;;;;8.38;5.97;;;;;;;17.74;77.60;96877.31;5114611;28;20576;-64
2022/06/04 03:32:16;;;;;;;9.43;6.43;;;;;;;17.98;76.20;96882.00;5113954;28;20415;-67
2022/06/04 03:34:42;;;;;;;5.72;5.22;;;;;;;18.32;75.65;96885.19;5114646;27;20397;-67
2022/06/04 03:37:07;;;;;;;7.30;5.10;;;;;;;18.68;74.80;96881.13;5114963;28;20066;-64
2022/06/04 03:39:33;;;;;;;6.32;5.10;;;;;;;19.03;73.22;96881.53;5114921;28;20023;-65
2022/06/04 03:42:01;;;;;;;8.02;5.10;;;;;;;19.37;71.64;96884.56;5114821;28;20031;-63
2022/06/04 03:44:27;;;;;;;7.20;4.40;;;;;;;19.71;70.99;96878.72;5114713;28;20031;-64
2022/06/04 03:46:53;;;;;;;7.45;4.82;;;;;;;20.08;69.71;96878.78;5114638;27;20026;-68
2022/06/04 03:49:18;;;;;;;9.48;4.55;;;;;;;20.46;68.91;96878.78;5114760;28;20020;-64
2022/06/04 03:51:45;;;;;;;4.97;4.57;;;;;;;20.87;67.44;96871.38;5114579;28;20031;-66
2022/06/04 03:54:10;;;;;;;11.48;4.30;;;;;;;21.25;65.36;96889.91;5114585;28;20487;-65
2022/06/04 03:56:36;;;;;;;5.93;4.03;;;;;;;21.59;64.55;96892.63;5114588;28;20028;-62
2022/06/04 03:59:02;;;;;;;9.80;4.30;;;;;;;21.85;63.26;96895.06;5114451;28;20164;-64
2022/06/04 04:01:29;;;;;;;9.13;4.47;;;;;;;22.11;62.63;96897.50;5114472;28;20541;-64
2022/06/04 04:03:56;;;;;;;4.50;3.63;;;;;;;22.39;62.25;96887.28;5114424;28;20369;-67
2022/06/04 04:06:29;;;;;;;4.82;3.67;;;;;;;22.70;61.43;96890.13;5114415;28;20023;-68
2022/06/04 04:08:55;;;;;;;6.80;3.88;;;;;;;23.06;59.93;96897.06;5114272;28;20030;-67
2022/06/04 04:11:25;;;;;;;5.97;3.92;;;;;;;23.29;59.54;96899.56;5114373;28;20486;-66
2022/06/04 04:13:51;;;;;;;6.30;3.90;;;;;;;23.55;59.27;96896.56;5114245;28;20028;-68
2022/06/04 04:16:18;;;;;;;4.45;3.90;;;;;;;23.88;58.05;96897.28;5114227;28;20015;-68
2022/06/04 04:18:44;;;;;;;6.47;3.58;;;;;;;24.14;57.31;96896.84;5114058;28;20529;-65
2022/06/04 04:21:14;;;;;;;6.90;3.88;;;;;;;24.31;57.46;96895.38;5114153;28;20032;-66
2022/06/04 04:23:41;;;;;;;6.25;3.70;;;;;;;24.60;56.92;96904.44;5114103;28;20092;-67
2022/06/04 04:26:09;;;;;;;5.95;3.50;;;;;;;24.88;56.42;96901.94;5114055;28;20023;-66
2022/06/04 04:28:34;;;;;;;5.15;3.80;;;;;;;25.18;55.63;96909.97;5113895;28;20031;-67
2022/06/04 04:31:00;;;;;;;5.38;3.70;;;;;;;25.39;55.50;96906.28;5113969;28;20384;-69
2022/06/04 04:33:26;;;;;;;6.63;3.63;;;;;;;25.67;55.07;96904.56;5113897;28;20028;-66
2022/06/04 04:35:52;;;;;;;7.05;3.53;;;;;;;25.92;54.98;96896.91;5113760;28;20044;-66
2022/06/04 04:38:18;;;;;;;5.63;3.90;;;;;;;26.09;54.83;96902.44;5113980;28;20028;-66
2022/06/04 04:40:45;;;;;;;7.40;3.65;;;;;;;26.35;54.50;96904.47;5113610;28;20028;-65
2022/06/04 04:43:11;;;;;;;4.20;3.40;;;;;;;26.52;53.93;96902.84;5113230;28;20026;-63
2022/06/04 04:45:37;;;;;;;5.10;3.90;;;;;;;26.36;53.62;96908.84;5113738;28;20024;-66
2022/06/04 04:48:04;;;;;;;7.55;3.85;;;;;;;25.99;54.87;96915.91;5113649;28;20031;-63
2022/06/04 04:50:33;;;;;;;8.02;4.00;;;;;;;25.75;55.54;96911.88;5113668;28;20023;-64
2022/06/04 04:53:00;;;;;;;6.82;3.92;;;;;;;25.77;56.18;96912.59;5113563;28;20064;-63
2022/06/04 04:55:26;;;;;;;6.75;3.67;;;;;;;25.68;55.70;96911.63;5113596;28;20466;-65
2022/06/04 04:57:51;;;;;;;9.00;4.05;;;;;;;25.40;56.07;96914.19;5113655;28;20512;-66
2022/06/04 05:00:19;;;;;;;8.63;4.03;;;;;;;25.13;56.82;96913.06;5113710;28;20028;-64
2022/06/04 05:02:45;;;;;;;8.18;4.20;;;;;;;24.91;57.85;96914.19;5113527;28;20027;-63
2022/06/04 05:05:11;;;;;;;4.63;4.13;;;;;;;24.67;58.87;96905.56;5113410;28;20024;-69
2022/06/04 05:07:38;;;;;;;8.27;4.97;;;;;;;24.44;59.26;96908.47;5113431;28;20024;-64
2022/06/04 05:10:05;;;;;;;9.45;4.47;;;;;;;24.23;59.73;96911.25;5113483;28;20031;-63
2022/06/04 05:12:31;;;;;;;11.20;4.88;;;;;;;24.04;60.27;96919.97;5113494;28;20024;-65
2022/06/04 05:14:56;;;;;;;8.35;4.57;;;;;;;23.91;61.28;96912.19;5113408;28;20470;-66
2022/06/04 05:17:22;;;;;;;5.47;4.30;;;;;;;23.80;61.69;96907.78;5113277;28;20027;-65
2022/06/04 05:19:48;;;;;;;6.53;4.50;;;;;;;23.83;62.50;96912.84;5113468;28;20023;-63
2022/06/04 05:22:14;;;;;;;7.50;5.00;;;;;;;24.25;61.91;96925.28;5113302;28;20032;-65
2022/06/04 05:24:39;;;;;;;15.35;4.28;;;;;;;24.83;60.19;96914.88;5113384;28;20461;-63
2022/06/04 05:27:06;;;;;;;9.27;4.03;;;;;;;25.32;59.90;96924.75;5113196;28;20027;-64
2022/06/04 05:29:33;;;;;;;8.80;4.10;;;;;;;25.83;59.01;96925.38;5113259;28;20080;-65
2022/06/04 05:31:59;;;;;;;6.63;3.88;;;;;;;26.44;57.16;96918.81;5113347;28;20020;-65
2022/06/04 05:34:26;;;;;;;6.63;3.67;;;;;;;26.97;55.93;96911.81;5113257;28;20470;-67
2022/06/04 05:36:55;;;;;;;11.27;3.92;;;;;;;27.48;56.09;96908.56;5112996;28;20056;-61
2022/06/04 05:39:22;;;;;;;4.32;3.25;;;;;;;27.94;54.09;96912.94;5113308;28;20032;-62
2022/06/04 05:41:49;;;;;;;4.40;3.35;;;;;;;28.41;52.39;96909.97;5113151;28;20024;-67
2022/06/04 05:44:15;;;;;;;7.20;4.07;;;;;;;28.80;52.82;96904.00;5113231;28;20027;-66
2022/06/04 05:46:42;;;;;;;5.05;3.20;;;;;;;29.10;47.71;96901.72;5113236;28;20019;-66
2022/06/04 05:49:10;;;;;;;9.55;3.90;;;;;;;29.20;47.12;96908.81;5111781;28;20431;-68
2022/06/04 05:51:37;;;;;;;8.57;3.50;;;;;;;29.01;47.55;96905.41;5112990;28;20042;-66
2022/06/04 05:54:02;;;;;;;3.53;3.15;;;;;;;28.59;47.90;96905.31;5115848;28;20030;-64
2022/06/04 05:56:30;;;;;;;8.18;3.85;;;;;;;28.40;49.00;96909.13;5115746;28;20024;-67
2022/06/04 05:58:59;;;;;;;9.52;3.63;;;;;;;28.64;49.34;96904.81;5117008;28;20055;-64
2022/06/04 06:01:27;;;;;;;12.85;3.60;;;;;;;28.76;48.66;96894.59;5116994;28;20028;-64
2022/06/04 06:03:54;;;;;;;9.65;3.42;;;;;;;28.89;48.99;96899.47;5116865;28;20024;-70
2022/06/04 06:06:23;;;;;;;17.98;3.72;;;;;;;29.14;47.73;96896.88;5116822;28;20479;-66
2022/06/04 06:08:49;;;;;;;6.85;3.33;;;;;;;29.44;46.67;96893.66;5116580;28;20024;-67
2022/06/04 06:11:16;;;;;;;8.07;4.00;;;;;;;29.45;46.84;96898.00;5116585;28;20381;-64
2022/06/04 06:13:43;;;;;;;6.13;3.40;;;;;;;29.53;46.00;96895.31;5116594;28;20026;-66
2022/06/04 06:16:15;;;;;;;7.55;3.45;;;;;;;29.69;46.26;96897.19;5116454;28;20023;-66
2022/06/04 06:18:41;;;;;;;7.88;3.60;;;;;;;29.72;44.76;96901.38;5116456;28;20111;-64
2022/06/04 06:21:12;;;;;;;5.22;3.67;;;;;;;29.68;45.72;96900.91;5116390;28;20060;-68
2022/06/04 06:23:39;;;;;;;8.80;3.42;;;;;;;29.66;44.66;96899.34;5116200;28;20366;-66
2022/06/04 06:26:11;;;;;;;6.50;3.42;;;;;;;29.68;45.47;96906.28;5116304;28;20023;-70
2022/06/04 06:28:39;;;;;;;7.53;3.53;;;;;;;29.85;45.73;96900.84;5116141;28;20034;-67
2022/06/04 06:31:06;;;;;;;7.25;3.55;;;;;;;30.14;43.49;96891.31;5116354;27;20031;-70
2022/06/04 06:33:33;;;;;;;8.55;3.20;;;;;;;30.45;43.04;96893.22;5115787;28;20031;-67
2022/06/04 06:36:01;;;;;;;5.65;2.90;;;;;;;30.11;43.38;96900.59;5115970;28;20048;-65
2022/06/04 06:38:28;;;;;;;7.68;3.60;;;;;;;29.97;43.08;96904.84;5116310;28;20029;-65
2022/06/04 06:40:55;;;;;;;10.63;3.30;;;;;;;29.98;44.92;96905.69;5116056;28;20023;-65
2022/06/04 06:43:36;;;;;;;6.10;3.17;;;;;;;30.24;41.49;96908.16;5116136;28;20538;-64
2022/06/04 06:46:10;;;;;;;12.63;3.78;;;;;;;29.99;43.00;96908.22;5116031;28;20051;-68
2022/06/04 06:48:38;;;;;;;9.20;3.00;;;;;;;29.57;42.77;96898.53;5115837;28;20393;-65
2022/06/04 06:51:12;;;;;;;5.20;3.38;;;;;;;29.60;44.18;96899.06;5115930;28;20093;-65
2022/06/04 06:53:39;;;;;;;12.68;3.15;;;;;;;29.80;43.09;96900.53;5115766;28;20047;-66
2022/06/04 06:56:12;;;;;;;3.47;2.88;;;;;;;29.84;43.60;96904.53;5114420;28;20027;-67
2022/06/04 06:58:38;;;;;;;4.10;2.85;;;;;;;29.57;42.37;96907.47;5115653;28;20431;-62
2022/06/04 07:01:04;;;;;;;7.80;3.15;;;;;;;29.46;43.07;96905.06;5115691;28;20032;-67
2022/06/04 07:03:32;;;;;;;8.77;3.65;;;;;;;29.51;42.03;96910.81;5115574;28;20023;-67
2022/06/04 07:05:59;;;;;;;9.02;3.20;;;;;;;28.96;42.77;96902.41;5114503;28;20415;-67
2022/06/04 07:08:26;;;;;;;7.15;3.45;;;;;;;28.75;44.03;96907.19;5115318;28;20109;-65
2022/06/04 07:10:51;;;;;;;6.63;3.40;;;;;;;28.94;42.13;96909.78;5115518;28;20465;-67
2022/06/04 07:13:17;;;;;;;4.65;3.22;;;;;;;28.91;42.46;96905.56;5115528;28;20016;-66
2022/06/04 07:15:43;;;;;;;4.90;2.80;;;;;;;29.26;42.84;96908.97;5115331;28;20024;-65
2022/06/04 07:18:14;;;;;;;8.63;3.53;;;;;;;29.63;42.32;96904.09;5115193;28;20103;-67
2022/06/04 07:20:40;;;;;;;10.48;3.55;;;;;;;29.99;41.24;96908.22;5115271;28;20034;-63
2022/06/04 07:23:07;;;;;;;5.13;2.63;;;;;;;29.99;40.68;96897.44;5115283;28;20469;-66
2022/06/04 07:25:33;;;;;;;4.10;2.90;;;;;;;30.16;39.09;96894.72;5114023;28;20023;-66
2022/06/04 07:27:59;;;;;;;8.05;2.78;;;;;;;29.99;38.68;96889.34;5114990;28;20422;-67
2022/06/04 07:30:25;;;;;;;4.15;2.85;;;;;;;29.93;40.01;96878.41;5114966;28;20073;-67
2022/06/04 07:32:51;;;;;;;7.57;3.35;;;;;;;30.16;40.00;96883.94;5114986;28;20043;-65
2022/06/04 07:35:17;;;;;;;8.43;3.00;;;;;;;30.04;39.87;96875.34;5114672;28;20049;-68
2022/06/04 07:37:43;;;;;;;11.30;3.40;;;;;;;30.10;40.27;96879.22;5114893;28;20020;-69
2022/06/04 07:40:12;;;;;;;5.97;2.78;;;;;;;30.26;39.73;96876.47;5114862;28;20034;-66
2022/06/04 07:42:38;;;;;;;8.73;3.63;;;;;;;29.94;38.78;96872.00;5114901;28;20024;-67
2022/06/04 07:45:05;;;;;;;14.82;2.90;;;;;;;30.00;40.57;96874.84;5114775;28;20032;-65
2022/06/04 07:47:31;;;;;;;9.13;3.10;;;;;;;29.86;40.04;96879.09;5114657;28;20027;-66
2022/06/04 07:49:57;;;;;;;6.25;2.83;;;;;;;30.00;39.55;96880.25;5114707;28;20053;-67
2022/06/04 07:52:23;;;;;;;6.15;3.22;;;;;;;30.50;40.13;96879.22;5114656;28;20055;-67
2022/06/04 07:54:49;;;;;;;3.65;2.63;;;;;;;30.95;39.51;96879.47;5114482;27;20535;-69
2022/06/04 07:57:15;;;;;;;7.75;3.25;;;;;;;31.06;36.68;96867.38;5114662;28;20023;-66
2022/06/04 07:59:42;;;;;;;15.90;3.17;;;;;;;31.18;38.31;96873.19;5114536;28;20023;-65
2022/06/04 08:02:10;;;;;;;6.28;2.58;;;;;;;31.21;37.56;96880.09;5114529;28;20020;-69
2022/06/04 08:04:35;;;;;;;6.57;3.28;;;;;;;30.84;38.48;96880.72;5114254;27;20019;-71
2022/06/04 08:07:04;;;;;;;9.55;2.85;;;;;;;30.61;38.24;96878.78;5114420;28;20024;-64
2022/06/04 08:09:30;;;;;;;7.18;2.63;;;;;;;30.33;38.74;96875.75;5114247;28;20120;-67
2022/06/04 08:11:56;;;;;;;4.50;2.90;;;;;;;30.04;39.75;96879.91;5114220;28;20400;-68
2022/06/04 08:14:24;;;;;;;6.50;2.72;;;;;;;29.98;40.21;96886.81;5114213;28;20023;-68
2022/06/04 08:16:53;;;;;;;7.28;3.05;;;;;;;29.79;38.22;96891.59;5113932;28;20103;-67
2022/06/04 08:19:20;;;;;;;8.15;3.22;;;;;;;29.84;37.56;96885.69;5114206;28;20719;-71
2022/06/04 08:21:46;;;;;;;10.13;2.55;;;;;;;30.07;38.11;96893.84;5114047;28;20042;-68
2022/06/04 08:24:13;;;;;;;8.02;3.40;;;;;;;30.31;38.33;96886.72;5114089;28;20019;-64
2022/06/04 08:26:46;;;;;;;13.57;3.53;;;;;;;30.72;41.39;96890.19;5114061;28;20022;-66
2022/06/04 08:29:13;;;;;;;3.65;2.55;;;;;;;30.75;38.22;96879.03;5113982;28;20067;-68
2022/06/04 08:31:39;;;;;;;5.13;3.03;;;;;;;30.85;38.41;96876.16;5114089;28;20549;-67
2022/06/04 08:34:06;;;;;;;4.15;2.80;;;;;;;31.32;37.33;96873.41;5113903;28;20055;-65
2022/06/04 08:36:32;;;;;;;9.90;3.10;;;;;;;31.84;38.75;96870.91;5113512;28;20091;-65
2022/06/04 08:39:01;;;;;;;5.95;2.80;;;;;;;32.09;34.79;96866.09;5113882;28;20034;-66
2022/06/04 08:41:26;;;;;;;11.75;2.85;;;;;;;31.59;34.75;96869.31;5113920;28;20081;-67
2022/06/04 08:44:15;;;;;;;4.45;2.75;;;;;;;31.28;34.74;96868.38;5113814;28;20488;-70
2022/06/04 08:46:53;;;;;;;7.15;2.67;;;;;;;31.31;35.83;96869.03;5113664;28;20039;-67
2022/06/04 08:49:31;;;;;;;10.05;2.88;;;;;;;31.74;36.07;96863.91;5113648;28;20054;-68
2022/06/04 08:52:03;;;;;;;7.47;2.83;;;;;;;31.89;34.40;96866.63;5113723;28;20023;-69
2022/06/04 08:57:35;;;;;;;4.25;2.90;;;;;;;31.94;35.07;96857.97;5113894;28;20093;-64
2022/06/04 09:00:07;;;;;;;12.52;3.10;;;;;;;31.87;34.49;96857.00;5113668;28;20035;-67
2022/06/04 09:03:07;;;;;;;5.40;2.83;;;;;;;31.80;35.74;96851.50;5113551;28;20115;-62
2022/06/04 09:05:50;;;;;;;6.83;2.20;;;;;;;31.65;35.99;96852.34;5113589;28;20028;-65
2022/06/04 09:08:32;;;;;;;5.43;2.80;;;;;;;31.68;35.14;96851.13;5113535;28;20031;-70
2022/06/04 09:11:01;;;;;;;5.47;2.83;;;;;;;31.15;36.59;96849.25;5113571;28;20098;-65
2022/06/04 09:13:35;;;;;;;7.07;2.90;;;;;;;30.57;37.28;96847.78;5113551;28;20031;-67
2022/06/04 09:16:29;;;;;;;4.20;3.20;;;;;;;30.34;37.67;96839.69;5113483;28;20028;-67
2022/06/04 09:19:02;;;;;;;7.05;2.80;;;;;;;30.41;36.59;96851.44;5113434;28;20384;-71
2022/06/04 09:21:35;;;;;;;6.40;2.95;;;;;;;30.84;36.99;96836.66;5113501;28;20063;-66
2022/06/04 09:24:01;;;;;;;9.27;2.90;;;;;;;30.71;34.81;96840.81;5113481;28;20019;-66
2022/06/04 09:26:41;;;;;;;9.32;3.53;;;;;;;30.26;36.22;96840.56;5113394;28;20016;-66
2022/06/04 09:29:13;;;;;;;4.18;2.80;;;;;;;30.00;37.15;96836.25;5116335;28;20495;-69
2022/06/04 09:31:44;;;;;;;7.55;3.13;;;;;;;29.94;38.29;96826.16;5117556;28;20055;-67
2022/06/04 09:34:40;;;;;;;4.80;2.85;;;;;;;30.32;39.83;96822.81;5117378;28;20051;-67
2022/06/04 09:37:09;;;;;;;6.05;2.85;;;;;;;30.66;38.63;96827.00;5117487;28;20544;-66
2022/06/04 09:39:38;;;;;;;10.40;2.97;;;;;;;31.04;37.17;96818.13;5117283;28;20498;-64
2022/06/04 09:42:13;;;;;;;4.25;2.50;;;;;;;31.04;34.70;96817.28;5117107;28;20503;-67
2022/06/04 09:44:52;;;;;;;4.72;3.03;;;;;;;30.72;34.62;96815.47;5117250;28;20020;-70
2022/06/04 09:47:26;;;;;;;9.13;3.28;;;;;;;30.49;35.28;96810.09;5117120;28;20153;-67
2022/06/04 09:49:55;;;;;;;5.57;2.90;;;;;;;30.38;36.72;96812.19;5117108;28;20106;-69
2022/06/04 09:52:21;;;;;;;7.50;3.08;;;;;;;29.83;36.81;96803.16;5116945;27;20031;-63
2022/06/04 09:54:59;;;;;;;4.40;2.58;;;;;;;29.52;37.92;96808.28;5117025;28;20035;-67
2022/06/04 09:57:32;;;;;;;8.38;2.58;;;;;;;29.49;37.94;96805.91;5116888;28;20039;-66
2022/06/04 10:00:00;;;;;;;6.97;2.72;;;;;;;29.82;37.06;96801.44;5116852;28;20038;-67
2022/06/04 10:02:27;;;;;;;5.45;2.75;;;;;;;30.15;38.32;96795.91;5116951;28;20015;-63
2022/06/04 10:05:02;;;;;;;8.95;2.65;;;;;;;30.49;35.71;96802.00;5116717;28;20496;-70
2022/06/04 10:07:34;;;;;;;3.50;2.80;;;;;;;30.93;34.97;96795.09;5116707;28;20024;-63
2022/06/04 10:10:17;;;;;;;4.20;2.90;;;;;;;31.04;34.02;96788.44;5116737;28;20020;-65
2022/06/04 10:15:41;;;;;;;3.67;2.55;;;;;;;31.08;33.13;96783.47;5116952;28;20043;-67
2022/06/04 10:18:16;;;;;;;8.13;2.78;;;;;;;31.08;34.41;96778.94;5115267;28;20040;-63
2022/06/04 10:20:50;;;;;;;8.48;2.88;;;;;;;31.16;35.39;96775.31;5116524;27;20027;-67
2022/06/04 10:23:16;;;;;;;4.78;3.17;;;;;;;31.02;35.67;96782.38;5116562;28;20016;-67
2022/06/04 10:25:55;;;;;;;6.45;3.13;;;;;;;31.07;37.64;96779.97;5116314;28;20043;-65
2022/06/04 10:28:35;;;;;;;6.18;2.90;;;;;;;31.02;38.10;96782.38;5116340;28;20031;-63
2022/06/04 10:31:28;;;;;;;6.60;3.17;;;;;;;30.74;40.29;96778.38;5116440;28;20043;-65
2022/06/04 10:34:15;;;;;;;4.13;2.92;;;;;;;30.77;39.32;96769.09;5116254;28;20457;-64
2022/06/04 10:37:03;;;;;;;7.80;3.17;;;;;;;30.89;39.21;96770.34;5115953;28;20036;-64
2022/06/04 10:39:56;;;;;;;5.82;3.05;;;;;;;30.85;38.52;96774.41;5114812;28;20031;-68
2022/06/04 10:42:52;;;;;;;5.97;2.60;;;;;;;31.18;37.97;96770.56;5115824;28;20030;-66
2022/06/04 10:45:54;;;;;;;6.00;3.50;;;;;;;31.56;37.75;96761.56;5116149;28;20424;-66
2022/06/04 10:48:57;;;;;;;8.77;3.20;;;;;;;31.35;35.66;96759.63;5115926;28;20469;-67
2022/06/04 10:51:40;;;;;;;4.60;2.97;;;;;;;31.47;36.30;96752.72;5115784;28;20042;-67
2022/06/04 10:54:16;;;;;;;5.95;3.00;;;;;;;31.48;35.60;96753.59;5115901;28;20098;-66
2022/06/04 10:57:13;;;;;;;3.50;2.67;;;;;;;31.33;34.58;96750.84;5115909;28;20020;-64
2022/06/04 11:00:12;;;;;;;4.95;2.92;;;;;;;31.48;35.73;96742.78;5111221;28;20031;-66
2022/06/04 11:02:52;;;;;;;4.68;2.70;;;;;;;31.38;35.86;96735.78;5115564;28;20019;-65
2022/06/04 11:05:21;;;;;;;5.72;2.80;;;;;;;31.18;35.27;96738.16;5115716;28;20047;-68
2022/06/04 11:08:06;;;;;;;3.90;2.63;;;;;;;31.36;34.67;96732.41;5115491;28;20351;-69
2022/06/04 11:10:43;;;;;;;8.07;2.60;;;;;;;31.40;34.11;96730.19;5115531;28;20027;-65
2022/06/04 11:13:51;;;;;;;3.50;2.70;;;;;;;31.15;34.30;96716.91;5115564;28;20106;-65
2022/06/04 11:16:27;;;;;;;10.05;2.90;;;;;;;31.19;34.83;96720.09;5115368;28;20481;-66
2022/06/04 11:19:21;;;;;;;5.00;2.33;;;;;;;31.37;34.07;96719.75;5115323;28;20100;-65
2022/06/04 11:21:54;;;;;;;10.90;2.97;;;;;;;31.36;35.01;96713.50;5115377;28;20032;-64
2022/06/04 11:24:52;;;;;;;5.68;2.92;;;;;;;31.51;35.67;96712.66;5115269;28;20393;-67
2022/06/04 11:27:25;;;;;;;6.68;2.83;;;;;;;31.77;34.54;96706.75;5090307;28;20097;-67
2022/06/04 11:29:53;;;;;;;9.52;2.90;;;;;;;31.82;33.48;96698.09;5115267;28;20484;-64
2022/06/04 11:32:29;;;;;;;3.47;2.80;;;;;;;31.83;32.87;96705.16;5115060;28;20106;-67
2022/06/04 11:35:14;;;;;;;4.47;3.05;;;;;;;31.45;37.15;96705.31;5114863;28;20123;-64
2022/06/04 11:38:17;;;;;;;9.05;3.50;;;;;;;30.93;38.19;96708.72;5115120;28;20031;-63
2022/06/04 11:41:02;;;;;;;7.80;3.67;;;;;;;30.44;39.19;96702.72;5114957;28;20495;-68
2022/06/04 11:43:55;;;;;;;5.80;3.25;;;;;;;30.21;38.72;96700.84;5114923;28;20034;-64
2022/06/04 11:46:27;;;;;;;7.05;2.95;;;;;;;30.22;40.77;96697.13;5114864;28;20067;-66
2022/06/04 11:49:17;;;;;;;5.40;3.13;;;;;;;30.52;39.93;96697.25;5114653;28;20476;-68
2022/06/04 11:52:00;;;;;;;6.72;3.10;;;;;;;30.86;40.03;96691.56;5114474;28;20034;-68
2022/06/04 11:54:29;;;;;;;9.07;2.92;;;;;;;31.26;39.27;96684.06;5114601;28;20043;-65
2022/06/04 11:57:10;;;;;;;8.05;3.10;;;;;;;31.60;39.14;96676.41;5114621;28;20020;-67
2022/06/04 12:00:12;;;;;;;7.30;3.28;;;;;;;31.92;38.47;96678.88;5114600;28;20137;-67
2022/06/04 12:02:59;;;;;;;8.70;3.05;;;;;;;32.01;37.30;96674.19;5104142;28;20039;-62
2022/06/04 12:05:49;;;;;;;8.75;2.67;;;;;;;32.40;35.21;96672.91;5114475;28;20462;-65
2022/06/04 12:08:23;;;;;;;7.28;2.50;;;;;;;32.75;33.56;96668.63;5114420;28;20027;-66
2022/06/04 12:11:09;;;;;;;4.10;3.15;;;;;;;33.04;33.30;96674.88;5114400;28;20039;-63